Time;durP1;ratioP1;P1;durP2;ratioP2;P2;SDS_P1;SDS_P2;PMS_P1;PMS_P2;Temp;Humidity;BMP_temperature;BMP_pressure;BME280_temperature;BME280_humidity;BME280_pressure;Samples;Min_cycle;Max_cycle;Signal;HPM_P1;HPM_P2
2022/12/15 00:38:56;;;;;;;12.88;10.98;;;0.10;99.90;;;;;;5010395;28;20515;-70
2022/12/15 00:41:21;;;;;;;12.70;11.03;;;0.10;99.90;;;;;;5010197;28;20514;-71
2022/12/15 00:43:47;;;;;;;11.63;10.30;;;0.10;99.90;;;;;;5009588;28;20539;-70
2022/12/15 00:48:57;;;;;;;12.53;10.50;;;0.20;99.90;;;;;;5010498;28;20392;-71
2022/12/15 01:21:30;;;;;;;14.20;12.25;;;0.00;99.90;;;;;;5009931;28;20384;-70
2022/12/15 01:23:56;;;;;;;16.42;13.45;;;0.10;99.90;;;;;;5009255;28;20388;-70
2022/12/15 01:26:21;;;;;;;14.48;12.50;;;0.20;99.90;;;;;;5009456;28;20455;-70
2022/12/15 01:28:47;;;;;;;14.60;12.57;;;0.10;99.90;;;;;;5009938;28;20388;-70
2022/12/15 01:31:13;;;;;;;17.63;13.65;;;0.10;99.90;;;;;;5009897;28;20389;-70
2022/12/15 01:33:41;;;;;;;15.60;12.88;;;0.10;99.90;;;;;;5009266;28;20434;-70
2022/12/15 01:36:08;;;;;;;15.85;12.98;;;0.20;99.90;;;;;;5009836;28;20694;-70
2022/12/15 01:38:33;;;;;;;15.82;13.00;;;0.20;99.90;;;;;;5009988;28;20762;-70
2022/12/15 01:41:06;;;;;;;15.23;13.60;;;0.00;99.90;;;;;;5009658;28;20467;-70
2022/12/15 01:43:34;;;;;;;17.07;13.57;;;0.10;99.90;;;;;;5009222;28;20389;-70
2022/12/15 01:46:04;;;;;;;15.10;13.02;;;0.10;99.90;;;;;;5009893;28;20828;-70
2022/12/15 01:48:46;;;;;;;16.10;13.55;;;0.10;99.90;;;;;;5009860;28;20895;-69
2022/12/15 01:51:38;;;;;;;15.57;13.30;;;0.00;99.90;;;;;;5009639;28;20381;-70
2022/12/15 01:54:15;;;;;;;18.37;14.50;;;0.00;99.90;;;;;;5009057;28;20417;-70
2022/12/15 01:56:46;;;;;;;19.70;14.90;;;0.00;99.90;;;;;;5009636;28;20385;-70
2022/12/15 01:59:19;;;;;;;18.98;14.73;;;0.10;99.90;;;;;;5009586;28;20449;-69
2022/12/15 02:01:44;;;;;;;18.92;15.10;;;0.00;99.90;;;;;;5009850;28;20396;-69
2022/12/15 02:04:11;;;;;;;19.53;14.87;;;0.10;99.90;;;;;;5008975;28;20393;-69
2022/12/15 02:06:36;;;;;;;20.83;15.82;;;0.10;99.90;;;;;;5009547;28;20562;-69
2022/12/15 02:09:03;;;;;;;19.77;15.10;;;0.10;99.90;;;;;;5010652;28;20423;-69
2022/12/15 02:11:29;;;;;;;19.17;14.57;;;0.10;99.90;;;;;;4995552;28;20396;-70
2022/12/15 02:14:06;;;;;;;18.23;14.93;;;0.10;99.90;;;;;;5011304;28;20762;-69
2022/12/15 02:17:03;;;;;;;18.25;14.60;;;0.10;99.90;;;;;;5013018;28;20420;-69
2022/12/15 02:20:06;;;;;;;18.65;15.02;;;0.20;99.90;;;;;;5012831;28;20479;-69
2022/12/15 02:22:50;;;;;;;19.70;16.17;;;0.20;99.90;;;;;;4946688;28;20404;-68
2022/12/15 02:25:40;;;;;;;20.17;15.43;;;0.10;99.90;;;;;;5012741;28;20460;-69
2022/12/15 02:28:10;;;;;;;20.27;15.35;;;0.00;99.90;;;;;;5012744;28;20385;-69
2022/12/15 02:34:13;;;;;;;19.65;15.27;;;0.00;99.90;;;;;;5012017;28;20388;-69
2022/12/15 02:36:43;;;;;;;21.13;17.00;;;0.10;99.90;;;;;;5012595;28;20397;-70
2022/12/15 02:39:11;;;;;;;22.80;17.67;;;0.20;99.90;;;;;;5012438;28;20871;-69
2022/12/15 02:41:39;;;;;;;21.42;17.75;;;0.10;99.90;;;;;;5012454;28;20401;-69
2022/12/15 02:44:18;;;;;;;22.23;17.50;;;0.10;99.90;;;;;;5011817;28;20471;-69
2022/12/15 02:47:28;;;;;;;23.60;17.48;;;0.10;99.90;;;;;;5012141;28;20408;-70
2022/12/15 02:50:12;;;;;;;21.58;16.25;;;0.00;99.90;;;;;;5012315;28;20411;-69
2022/12/15 02:52:37;;;;;;;23.00;17.42;;;-0.10;99.90;;;;;;5011492;28;20430;-69
2022/12/15 02:55:14;;;;;;;25.15;18.13;;;0.00;99.90;;;;;;5012102;28;20809;-69
2022/12/15 02:57:57;;;;;;;24.25;18.23;;;0.00;99.90;;;;;;5012200;28;20731;-69
2022/12/15 03:00:23;;;;;;;24.83;16.83;;;0.10;99.90;;;;;;5012034;28;20396;-68
2022/12/15 03:02:51;;;;;;;23.77;17.50;;;0.00;99.90;;;;;;5011523;28;20758;-69
2022/12/15 03:05:19;;;;;;;23.90;18.52;;;-0.10;99.90;;;;;;5012046;28;20838;-69
2022/12/15 03:07:44;;;;;;;21.02;16.65;;;0.00;99.90;;;;;;5011856;28;20385;-69
2022/12/15 03:10:12;;;;;;;21.25;16.02;;;-0.10;99.90;;;;;;5011843;28;20392;-69
2022/12/15 03:12:38;;;;;;;21.90;17.40;;;-0.10;99.90;;;;;;5011183;28;20468;-69
2022/12/15 03:15:04;;;;;;;22.02;16.70;;;0.00;99.90;;;;;;5010218;28;20477;-69
2022/12/15 03:17:30;;;;;;;21.15;15.88;;;0.00;99.90;;;;;;5011698;28;20396;-69
2022/12/15 03:19:55;;;;;;;21.60;15.67;;;0.00;99.90;;;;;;5011754;28;20384;-68
2022/12/15 03:22:21;;;;;;;20.60;16.20;;;-0.10;99.90;;;;;;5011749;28;20899;-68
2022/12/15 03:24:47;;;;;;;21.40;15.93;;;-0.10;99.90;;;;;;5010978;28;20383;-68
2022/12/15 03:27:13;;;;;;;20.75;16.35;;;-0.10;99.90;;;;;;5011667;28;20400;-68
2022/12/15 03:29:39;;;;;;;19.33;15.23;;;-0.20;99.90;;;;;;5011694;28;20395;-69
2022/12/15 03:32:05;;;;;;;23.27;16.38;;;-0.20;99.90;;;;;;5011467;28;20768;-69
2022/12/15 03:34:30;;;;;;;20.90;15.60;;;-0.20;99.90;;;;;;5010872;28;20389;-69
2022/12/15 03:36:56;;;;;;;21.50;16.10;;;-0.20;99.90;;;;;;4993881;28;20871;-69
2022/12/15 03:39:22;;;;;;;21.42;16.02;;;-0.10;99.90;;;;;;5011367;28;20763;-69
2022/12/15 03:41:47;;;;;;;20.67;15.27;;;-0.20;99.90;;;;;;5011472;28;20476;-69
2022/12/15 03:44:13;;;;;;;20.40;15.83;;;-0.10;99.90;;;;;;4993329;28;20464;-68
2022/12/15 03:46:38;;;;;;;19.10;16.17;;;-0.10;99.90;;;;;;5011165;28;20409;-69
2022/12/15 03:49:04;;;;;;;22.40;16.70;;;-0.20;99.90;;;;;;5011285;28;20821;-69
2022/12/15 03:51:30;;;;;;;23.50;17.83;;;-0.10;99.90;;;;;;5011174;28;21087;-70
2022/12/15 03:53:57;;;;;;;20.05;16.25;;;-0.20;99.90;;;;;;5010571;28;20886;-68
2022/12/15 03:56:23;;;;;;;21.58;16.25;;;-0.20;99.90;;;;;;5011163;28;20385;-69
2022/12/15 03:58:49;;;;;;;20.33;15.90;;;-0.20;99.90;;;;;;5011199;28;20898;-68
2022/12/15 04:01:34;;;;;;;21.07;16.70;;;-0.20;99.90;;;;;;5011084;28;20769;-68
2022/12/15 04:04:01;;;;;;;22.58;17.80;;;-0.40;99.90;;;;;;5010318;28;20467;-69
2022/12/15 04:06:26;;;;;;;23.70;17.60;;;-0.40;99.90;;;;;;5010917;28;20488;-69
2022/12/15 04:08:52;;;;;;;21.75;17.00;;;-0.30;99.90;;;;;;5010826;28;20500;-69
2022/12/15 04:11:18;;;;;;;23.38;18.05;;;-0.20;99.90;;;;;;5010894;28;20392;-69
2022/12/15 04:13:44;;;;;;;25.42;18.88;;;-0.30;99.90;;;;;;5008380;28;20376;-68
2022/12/15 04:16:09;;;;;;;26.47;19.10;;;-0.30;99.90;;;;;;5010898;28;20755;-68
2022/12/15 04:18:35;;;;;;;24.20;18.50;;;-0.30;99.90;;;;;;5010746;28;20810;-68
2022/12/15 04:21:00;;;;;;;24.40;19.40;;;-0.20;99.90;;;;;;5010732;28;20385;-69
2022/12/15 04:23:26;;;;;;;23.60;19.10;;;-0.10;99.90;;;;;;5010105;28;20464;-69
2022/12/15 05:31:53;;;;;;;20.85;17.08;;;-0.10;99.90;;;;;;5010617;28;20495;-69
2022/12/15 05:34:25;;;;;;;23.75;18.25;;;-0.10;99.90;;;;;;4992036;28;20396;-69
2022/12/15 05:36:52;;;;;;;27.00;19.08;;;-0.30;99.90;;;;;;5010563;28;20389;-69
2022/12/15 05:39:18;;;;;;;26.63;19.70;;;-0.20;99.90;;;;;;5010600;28;20471;-69
2022/12/15 05:41:43;;;;;;;23.60;18.27;;;-0.20;99.90;;;;;;5010402;28;20400;-69
2022/12/15 05:44:09;;;;;;;24.57;18.17;;;-0.20;99.90;;;;;;5011062;28;20395;-70
2022/12/15 05:46:35;;;;;;;24.13;18.20;;;-0.10;99.90;;;;;;5014047;28;20475;-70
2022/12/15 05:49:08;;;;;;;23.40;18.48;;;-0.20;99.90;;;;;;5013888;28;20389;-70
2022/12/15 05:51:37;;;;;;;24.77;19.33;;;-0.10;99.90;;;;;;5014193;28;20407;-69
2022/12/15 05:54:03;;;;;;;21.90;17.42;;;-0.10;99.90;;;;;;5013319;28;20758;-69
2022/12/15 05:56:28;;;;;;;23.65;18.83;;;-0.20;99.90;;;;;;5014338;28;20384;-69
2022/12/15 05:58:57;;;;;;;24.77;19.50;;;-0.20;99.90;;;;;;5014156;28;20393;-69
2022/12/15 06:01:24;;;;;;;24.20;18.10;;;-0.30;99.90;;;;;;5013907;28;20519;-70
2022/12/15 06:03:50;;;;;;;25.45;19.73;;;-0.40;99.90;;;;;;5013734;28;20401;-70
2022/12/15 06:06:16;;;;;;;24.98;19.00;;;-0.30;99.90;;;;;;5014203;28;20411;-69
2022/12/15 06:08:42;;;;;;;25.02;18.52;;;-0.40;99.90;;;;;;5013782;28;20431;-69
2022/12/15 06:11:15;;;;;;;23.97;18.67;;;-0.20;99.90;;;;;;5052211;22;20433;-70
2022/12/15 06:13:42;;;;;;;24.58;18.77;;;-0.20;99.90;;;;;;5050985;28;20389;-70
2022/12/15 06:16:14;;;;;;;23.05;18.42;;;-0.20;99.90;;;;;;5035449;28;20398;-70
2022/12/15 06:18:42;;;;;;;23.50;18.17;;;-0.30;99.90;;;;;;5053587;28;20431;-70
2022/12/15 06:21:11;;;;;;;26.65;19.48;;;-0.30;99.90;;;;;;5053198;28;20382;-70
2022/12/15 06:23:37;;;;;;;25.83;20.55;;;-0.40;99.90;;;;;;5034452;28;20412;-69
2022/12/15 06:26:19;;;;;;;26.73;19.10;;;-0.80;99.90;;;;;;5052766;28;21065;-69
2022/12/15 06:28:46;;;;;;;33.30;22.92;;;-0.50;99.90;;;;;;5047525;28;20411;-69
2022/12/15 06:31:12;;;;;;;29.15;22.17;;;-0.50;99.90;;;;;;5052566;28;20408;-69
2022/12/15 06:33:38;;;;;;;30.10;22.27;;;-0.60;99.90;;;;;;5050851;28;20377;-70
2022/12/15 06:36:06;;;;;;;30.80;22.75;;;-0.50;99.90;;;;;;5052000;28;20842;-69
2022/12/15 06:38:32;;;;;;;31.83;22.42;;;-0.40;99.90;;;;;;5033944;28;20435;-70
2022/12/15 06:40:59;;;;;;;28.63;21.00;;;-0.50;99.90;;;;;;5052913;28;20410;-69
2022/12/15 06:43:28;;;;;;;28.67;22.00;;;-0.50;99.90;;;;;;5051916;28;20398;-70
2022/12/15 06:45:54;;;;;;;26.45;21.10;;;-0.50;99.90;;;;;;5052524;28;20547;-69
2022/12/15 06:48:21;;;;;;;32.58;23.02;;;-0.60;99.90;;;;;;5034783;28;20473;-69
2022/12/15 06:50:47;;;;;;;30.52;22.15;;;-0.60;99.90;;;;;;5052306;28;20386;-70
2022/12/15 06:53:14;;;;;;;28.30;21.77;;;-0.60;99.90;;;;;;5051751;28;20386;-70
2022/12/15 06:55:40;;;;;;;28.38;21.30;;;-0.60;99.90;;;;;;5051988;28;20394;-69
2022/12/15 06:58:06;;;;;;;33.28;22.80;;;-0.70;99.90;;;;;;5052549;28;20523;-69
2022/12/15 07:00:35;;;;;;;31.02;21.65;;;-0.60;99.90;;;;;;5052275;28;20465;-69
2022/12/15 07:03:01;;;;;;;29.10;20.42;;;-0.60;99.90;;;;;;5033713;28;20389;-69
2022/12/15 07:05:27;;;;;;;30.58;22.48;;;-1.00;99.90;;;;;;5052021;28;20401;-69
2022/12/15 07:07:52;;;;;;;29.57;22.37;;;-0.80;99.90;;;;;;5052335;28;20386;-69
2022/12/15 07:10:18;;;;;;;33.40;22.00;;;-0.70;99.90;;;;;;5051833;28;20393;-69
2022/12/15 07:12:43;;;;;;;31.07;22.77;;;-0.80;99.90;;;;;;5033667;28;20389;-69
2022/12/15 07:15:10;;;;;;;32.70;22.77;;;-0.70;99.90;;;;;;5052157;28;20392;-69
2022/12/15 07:17:36;;;;;;;32.50;23.47;;;-0.60;99.90;;;;;;5052119;28;20385;-69
2022/12/15 07:20:04;;;;;;;32.97;24.35;;;-0.70;99.90;;;;;;5051456;28;20404;-69
2022/12/15 07:22:29;;;;;;;32.67;24.73;;;-0.70;99.90;;;;;;5042235;28;20445;-69
2022/12/15 07:24:55;;;;;;;37.42;25.98;;;-0.80;99.90;;;;;;5051119;28;20755;-69
2022/12/15 07:27:21;;;;;;;38.22;25.50;;;-0.80;99.90;;;;;;5051940;28;20392;-69
2022/12/15 07:29:46;;;;;;;32.80;25.10;;;-0.80;99.90;;;;;;5051749;28;20390;-69
2022/12/15 07:32:12;;;;;;;37.80;26.30;;;-0.80;99.90;;;;;;5051661;28;20431;-69
2022/12/15 07:34:37;;;;;;;39.43;27.60;;;-0.80;99.90;;;;;;5050717;28;20381;-69
2022/12/15 07:37:03;;;;;;;38.20;26.80;;;-0.70;99.90;;;;;;5051860;28;20393;-69
2022/12/15 07:39:28;;;;;;;39.80;26.90;;;-0.90;99.90;;;;;;5050466;28;20868;-69
2022/12/15 07:41:54;;;;;;;39.30;25.50;;;-0.80;99.90;;;;;;5051488;28;20393;-70
2022/12/15 07:44:19;;;;;;;36.20;24.70;;;-0.90;99.90;;;;;;5050925;28;20381;-69
2022/12/15 07:46:47;;;;;;;38.40;26.60;;;-1.00;99.90;;;;;;5051313;28;20416;-69
2022/12/15 07:51:40;;;;;;;38.27;26.70;;;-0.90;99.90;;;;;;5056202;22;20429;-69
2022/12/15 07:54:05;;;;;;;39.20;25.80;;;-1.00;99.90;;;;;;5049429;28;20992;-68
2022/12/15 07:56:31;;;;;;;39.83;26.50;;;-0.90;99.90;;;;;;5051256;28;20381;-69
2022/12/15 07:58:56;;;;;;;36.13;25.58;;;-1.00;99.90;;;;;;5051246;28;20385;-69
2022/12/15 08:01:23;;;;;;;36.15;26.02;;;-0.80;99.90;;;;;;5032816;28;20383;-69
2022/12/15 08:03:49;;;;;;;39.28;27.05;;;-0.90;99.90;;;;;;5030399;28;20387;-69
2022/12/15 08:06:15;;;;;;;38.60;26.60;;;-0.80;99.90;;;;;;5030246;28;20502;-69
2022/12/15 08:08:40;;;;;;;39.05;26.95;;;-0.70;99.90;;;;;;5031063;28;20900;-69
2022/12/15 08:11:12;;;;;;;37.63;25.90;;;-0.90;99.90;;;;;;5027781;28;20395;-68
2022/12/15 08:13:38;;;;;;;34.33;24.95;;;-0.70;99.90;;;;;;5029985;28;20745;-69
2022/12/15 08:16:04;;;;;;;35.20;26.30;;;-0.80;99.90;;;;;;5030861;28;20394;-69
2022/12/15 08:18:30;;;;;;;41.60;26.30;;;-0.80;99.90;;;;;;5031035;28;20387;-69
2022/12/15 08:21:00;;;;;;;36.87;26.80;;;-0.70;99.90;;;;;;5031264;28;20375;-69
2022/12/15 08:23:27;;;;;;;36.97;26.90;;;-0.70;99.90;;;;;;5030179;28;20387;-69
2022/12/15 08:25:53;;;;;;;37.50;26.65;;;-0.60;99.90;;;;;;5030771;28;20513;-68
2022/12/15 08:28:18;;;;;;;41.17;27.73;;;-0.60;99.90;;;;;;5029280;28;20466;-68
2022/12/15 08:30:44;;;;;;;39.60;27.73;;;-0.50;99.90;;;;;;5030542;28;20418;-69
2022/12/15 08:33:10;;;;;;;37.37;25.83;;;-0.60;99.90;;;;;;5029909;28;20383;-69
2022/12/15 08:35:39;;;;;;;39.03;25.73;;;-0.70;99.90;;;;;;5030685;28;20723;-69
2022/12/15 08:38:04;;;;;;;39.40;27.30;;;-0.60;99.90;;;;;;5029172;28;20410;-69
2022/12/15 08:40:30;;;;;;;38.83;27.43;;;-0.70;99.90;;;;;;5030564;28;20870;-68
2022/12/15 08:42:55;;;;;;;40.97;27.90;;;-0.70;99.90;;;;;;5029689;28;20907;-68
2022/12/15 08:45:21;;;;;;;37.30;25.20;;;-0.60;99.90;;;;;;5030452;28;20407;-68
2022/12/15 08:47:46;;;;;;;40.97;27.73;;;-0.60;99.90;;;;;;5030480;28;20383;-69
2022/12/15 08:50:12;;;;;;;40.53;27.70;;;-0.60;99.90;;;;;;5030154;28;20441;-69
2022/12/15 08:52:40;;;;;;;39.37;27.20;;;-0.50;99.90;;;;;;5029666;28;20475;-69
2022/12/15 08:55:10;;;;;;;39.83;28.20;;;-0.50;99.90;;;;;;5030401;28;20386;-69
2022/12/15 08:57:37;;;;;;;39.65;27.77;;;-0.40;99.90;;;;;;5030308;28;20474;-68
2022/12/15 09:00:04;;;;;;;37.40;26.90;;;-0.50;99.90;;;;;;5030419;28;20411;-68
2022/12/15 09:02:29;;;;;;;37.03;25.73;;;-0.50;99.90;;;;;;5028678;28;20481;-68
2022/12/15 09:04:55;;;;;;;40.67;27.97;;;-0.40;99.90;;;;;;5029909;28;20840;-67
2022/12/15 09:07:20;;;;;;;41.07;29.20;;;-0.40;99.90;;;;;;5030314;28;20742;-68
2022/12/15 09:09:46;;;;;;;40.00;26.80;;;-0.40;99.90;;;;;;5030023;28;20460;-68
2022/12/15 09:12:12;;;;;;;38.03;27.10;;;-0.60;99.90;;;;;;5029921;28;20397;-68
2022/12/15 09:14:37;;;;;;;41.15;26.90;;;-0.50;99.90;;;;;;5029466;28;20816;-68
2022/12/15 09:17:03;;;;;;;38.63;27.52;;;-0.50;99.90;;;;;;5030168;28;20529;-69
2022/12/15 09:19:28;;;;;;;39.45;27.08;;;-0.50;99.90;;;;;;5034070;28;20383;-69
2022/12/15 09:21:54;;;;;;;40.95;27.70;;;-0.40;99.90;;;;;;5032838;28;20939;-68
2022/12/15 09:24:20;;;;;;;42.88;28.73;;;-0.40;99.90;;;;;;5033491;28;20394;-68
2022/12/15 09:26:46;;;;;;;40.20;26.58;;;-0.40;99.90;;;;;;5033929;28;20455;-68
2022/12/15 09:29:14;;;;;;;40.38;25.90;;;-0.30;99.90;;;;;;5034076;28;20474;-68
2022/12/15 09:31:43;;;;;;;37.40;26.73;;;-0.20;99.90;;;;;;5032730;28;20390;-68
2022/12/15 09:34:14;;;;;;;39.65;28.40;;;0.00;99.90;;;;;;5033419;28;20387;-68
2022/12/15 09:36:39;;;;;;;40.40;28.83;;;-0.30;99.90;;;;;;5034001;28;20403;-68
2022/12/15 09:39:05;;;;;;;42.07;28.30;;;-0.30;99.90;;;;;;5033983;28;20406;-68
2022/12/15 09:41:33;;;;;;;41.85;27.95;;;-0.40;99.90;;;;;;5033690;28;20383;-68
2022/12/15 09:44:13;;;;;;;39.20;27.20;;;-0.40;99.90;;;;;;5030323;28;20449;-69
2022/12/15 09:47:00;;;;;;;41.40;28.40;;;-0.40;99.90;;;;;;5033613;28;20413;-68
2022/12/15 09:49:37;;;;;;;40.47;27.10;;;-0.30;99.90;;;;;;5032123;28;20386;-69
2022/12/15 09:52:10;;;;;;;42.53;26.77;;;-0.30;99.90;;;;;;5033783;28;20381;-70
2022/12/15 09:54:36;;;;;;;41.97;27.80;;;-0.30;99.90;;;;;;5033112;28;20387;-69
2022/12/15 09:57:07;;;;;;;41.95;28.95;;;-0.20;99.90;;;;;;5033987;28;20425;-69
2022/12/15 09:59:40;;;;;;;44.28;30.73;;;-0.20;99.90;;;;;;5033561;28;20387;-68
2022/12/15 10:03:04;;;;;;;41.33;28.60;;;-0.20;99.90;;;;;;5033693;28;20382;-69
2022/12/15 10:05:56;;;;;;;45.80;29.08;;;-0.30;99.90;;;;;;4958710;28;20540;-68
2022/12/15 10:08:27;;;;;;;41.17;27.58;;;-0.30;99.90;;;;;;5033282;28;20375;-69
2022/12/15 10:11:21;;;;;;;42.40;29.60;;;-0.30;99.90;;;;;;5033386;28;20367;-69
2022/12/15 10:14:21;;;;;;;47.50;30.52;;;-0.20;99.90;;;;;;5032588;28;20466;-68
2022/12/15 10:17:13;;;;;;;46.25;30.13;;;-0.30;99.90;;;;;;5033097;28;20386;-69
2022/12/15 10:19:41;;;;;;;50.72;32.25;;;-0.30;99.90;;;;;;5033171;28;20409;-69
2022/12/15 10:22:18;;;;;;;42.05;29.95;;;-0.30;99.90;;;;;;5033057;28;20466;-69
2022/12/15 10:24:43;;;;;;;45.80;31.00;;;-0.30;99.90;;;;;;5032266;28;20387;-69
2022/12/15 10:27:35;;;;;;;48.43;31.30;;;-0.30;99.90;;;;;;5032775;28;20407;-69
2022/12/15 10:30:03;;;;;;;45.33;30.42;;;-0.40;99.90;;;;;;5032139;28;20877;-69
2022/12/15 10:32:48;;;;;;;48.05;29.40;;;-0.50;99.90;;;;;;5032676;28;20391;-68
2022/12/15 10:35:26;;;;;;;44.28;30.00;;;-0.50;99.90;;;;;;5032942;28;20437;-68
2022/12/15 10:37:56;;;;;;;46.73;29.47;;;-0.40;99.90;;;;;;5032899;28;20878;-69
2022/12/15 10:40:45;;;;;;;49.55;29.10;;;-0.50;99.90;;;;;;5032770;28;20797;-68
2022/12/15 10:43:26;;;;;;;44.55;30.13;;;-0.50;99.90;;;;;;5031954;28;20387;-68
2022/12/15 10:46:14;;;;;;;47.08;30.50;;;-0.50;99.90;;;;;;5032589;28;20410;-69
2022/12/15 10:49:10;;;;;;;46.83;29.27;;;-0.40;99.90;;;;;;5032692;28;20372;-68
2022/12/15 10:51:42;;;;;;;43.95;29.55;;;-0.10;99.90;;;;;;5032860;28;20953;-69
2022/12/15 10:54:11;;;;;;;48.67;30.70;;;-0.40;99.90;;;;;;5032019;28;20388;-68
2022/12/15 10:57:01;;;;;;;47.25;31.67;;;-0.60;99.90;;;;;;5032945;28;20797;-69
2022/12/15 10:59:36;;;;;;;48.17;32.10;;;-0.50;99.90;;;;;;5032524;28;20410;-68
2022/12/15 11:02:20;;;;;;;50.75;30.98;;;-0.40;99.90;;;;;;5032523;28;20383;-69
2022/12/15 11:04:57;;;;;;;46.53;30.92;;;-0.40;99.90;;;;;;5030765;28;20490;-69
2022/12/15 11:07:30;;;;;;;48.47;31.77;;;-0.60;99.90;;;;;;5032457;28;20441;-68
2022/12/15 11:10:00;;;;;;;49.47;30.00;;;-0.50;99.90;;;;;;5032396;28;20391;-69
2022/12/15 11:15:20;;;;;;;46.67;32.75;;;-0.20;99.90;;;;;;5032490;28;20407;-68
2022/12/15 11:17:56;;;;;;;46.37;29.10;;;-0.30;99.90;;;;;;5031114;28;20394;-68
2022/12/15 11:20:32;;;;;;;45.88;31.60;;;-0.40;99.90;;;;;;5031277;28;20391;-68
2022/12/15 11:23:04;;;;;;;45.08;30.10;;;-0.10;99.90;;;;;;5031700;28;20433;-68
2022/12/15 11:25:32;;;;;;;42.67;29.48;;;-0.30;99.90;;;;;;5031773;28;21159;-68
2022/12/15 11:28:00;;;;;;;46.20;29.98;;;-0.30;99.90;;;;;;5032026;28;20382;-68
2022/12/15 11:30:33;;;;;;;47.13;30.60;;;-0.20;99.90;;;;;;5030850;28;20394;-69
2022/12/15 11:33:00;;;;;;;42.35;28.65;;;-0.20;99.90;;;;;;5031292;28;20449;-69
2022/12/15 11:35:52;;;;;;;40.15;27.73;;;-0.20;99.90;;;;;;5031982;28;20394;-68
2022/12/15 11:38:33;;;;;;;43.58;27.80;;;0.00;99.90;;;;;;5031863;28;20395;-68
2022/12/15 11:41:11;;;;;;;44.72;28.33;;;0.00;99.90;;;;;;5031691;28;20437;-68
2022/12/15 11:43:49;;;;;;;44.33;29.83;;;-0.20;99.90;;;;;;5030869;28;20861;-70
2022/12/15 11:46:25;;;;;;;44.30;29.15;;;-0.30;99.90;;;;;;5031489;28;20402;-68
2022/12/15 11:48:54;;;;;;;46.60;30.33;;;-0.30;99.90;;;;;;5031746;28;20375;-68
2022/12/15 11:51:31;;;;;;;45.50;30.48;;;-0.20;99.90;;;;;;5031493;28;20399;-68
2022/12/15 11:54:16;;;;;;;46.50;31.33;;;-0.30;99.90;;;;;;5031128;28;20394;-68
2022/12/15 11:56:49;;;;;;;48.08;30.30;;;-0.20;99.90;;;;;;5031558;28;20375;-68
2022/12/15 11:59:41;;;;;;;45.27;30.23;;;-0.20;99.90;;;;;;5031351;28;20398;-68
2022/12/15 12:02:44;;;;;;;42.50;29.92;;;-0.10;99.90;;;;;;5031567;28;20394;-68
2022/12/15 12:05:34;;;;;;;49.72;30.95;;;-0.20;99.90;;;;;;5015263;28;20405;-67
2022/12/15 12:08:38;;;;;;;46.95;31.30;;;-0.20;99.90;;;;;;5031748;28;20474;-67
2022/12/15 12:11:20;;;;;;;48.75;30.25;;;-0.10;99.90;;;;;;5011307;28;20458;-68
2022/12/15 12:14:19;;;;;;;52.47;31.95;;;-0.20;99.90;;;;;;5011353;28;20381;-67
2022/12/15 12:17:05;;;;;;;46.80;32.40;;;-0.10;99.90;;;;;;5012188;28;20423;-69
2022/12/15 12:19:42;;;;;;;47.10;32.47;;;-0.20;99.90;;;;;;5027393;28;20819;-69
2022/12/15 12:22:24;;;;;;;52.35;31.80;;;0.00;99.90;;;;;;5039295;28;20824;-67
2022/12/15 12:25:02;;;;;;;49.13;32.23;;;-0.20;99.90;;;;;;5033202;28;20377;-68
2022/12/15 12:27:58;;;;;;;50.97;32.40;;;0.00;99.90;;;;;;5042484;28;20414;-68
2022/12/15 12:30:30;;;;;;;49.75;32.42;;;-0.20;99.90;;;;;;5050749;28;21084;-68
2022/12/15 12:33:22;;;;;;;48.50;30.65;;;-0.30;99.90;;;;;;5050014;28;20380;-68
2022/12/15 12:35:55;;;;;;;50.85;31.20;;;-0.40;99.90;;;;;;5047382;28;20397;-68
2022/12/15 12:38:32;;;;;;;52.55;31.90;;;-0.30;99.90;;;;;;5050523;28;20755;-68
2022/12/15 12:41:10;;;;;;;51.50;32.33;;;-0.30;99.90;;;;;;5050458;28;20424;-67
2022/12/15 12:43:54;;;;;;;54.72;34.00;;;-0.60;99.90;;;;;;5048563;28;20451;-68
2022/12/15 12:46:26;;;;;;;52.90;32.57;;;-0.50;99.90;;;;;;5050634;28;20903;-69
2022/12/15 12:49:01;;;;;;;52.25;32.88;;;-0.50;99.90;;;;;;5050403;28;20449;-68
2022/12/15 12:51:36;;;;;;;46.73;30.40;;;-0.40;99.90;;;;;;5051177;28;20404;-69
2022/12/15 12:54:30;;;;;;;51.78;31.30;;;-0.50;99.90;;;;;;5049261;28;20502;-68
2022/12/15 12:56:55;;;;;;;54.00;32.63;;;-0.60;99.90;;;;;;5041831;28;20412;-69
2022/12/15 12:59:27;;;;;;;51.92;32.00;;;-0.50;99.90;;;;;;5050599;28;20836;-69
2022/12/15 13:02:09;;;;;;;53.40;32.03;;;-0.60;99.90;;;;;;5050420;28;20431;-69
2022/12/15 13:04:35;;;;;;;51.20;33.33;;;-0.50;99.90;;;;;;5049639;28;20416;-68
2022/12/15 13:07:04;;;;;;;52.80;32.90;;;-0.70;99.90;;;;;;5050203;28;20401;-68
2022/12/15 13:09:38;;;;;;;56.22;34.17;;;-0.60;99.90;;;;;;5038533;28;20422;-70
2022/12/15 13:12:04;;;;;;;53.55;33.30;;;-0.50;99.90;;;;;;5030276;28;20745;-69
2022/12/15 13:14:44;;;;;;;56.72;34.50;;;-0.60;99.90;;;;;;5029469;28;20798;-68
2022/12/15 13:17:15;;;;;;;58.22;34.33;;;-0.50;99.90;;;;;;5031144;28;20414;-69
2022/12/15 13:19:56;;;;;;;53.80;34.60;;;-0.40;99.90;;;;;;5025705;28;20393;-69
2022/12/15 13:22:24;;;;;;;55.13;34.40;;;-0.50;99.90;;;;;;5030704;28;20433;-69
2022/12/15 13:24:50;;;;;;;56.17;33.20;;;-0.40;99.90;;;;;;5033742;28;20398;-69
2022/12/15 13:27:16;;;;;;;52.97;33.30;;;-0.50;99.90;;;;;;5043404;28;20720;-69
2022/12/15 13:30:04;;;;;;;56.08;34.25;;;-0.50;99.90;;;;;;5029717;28;20383;-69
2022/12/15 13:32:38;;;;;;;52.30;32.90;;;-0.50;99.90;;;;;;5028239;28;20367;-69
2022/12/15 13:35:13;;;;;;;53.05;33.60;;;-0.40;99.90;;;;;;5028751;28;20379;-69
2022/12/15 13:37:50;;;;;;;54.33;34.38;;;-0.50;99.90;;;;;;5032542;28;20770;-68
2022/12/15 13:40:22;;;;;;;55.97;33.43;;;-0.40;99.90;;;;;;5040799;28;20544;-69
2022/12/15 13:43:05;;;;;;;54.42;34.55;;;-0.20;99.90;;;;;;5041674;28;20381;-69
2022/12/15 13:45:52;;;;;;;51.13;31.33;;;-0.30;99.90;;;;;;5049574;28;20436;-69
2022/12/15 13:48:40;;;;;;;55.30;33.72;;;-0.50;99.90;;;;;;5029559;28;20885;-70
2022/12/15 13:51:20;;;;;;;55.10;33.07;;;-0.40;99.90;;;;;;5023020;28;20406;-69
2022/12/15 13:53:51;;;;;;;58.78;34.90;;;-0.30;99.90;;;;;;5028348;28;20414;-68
2022/12/15 13:56:32;;;;;;;51.55;32.40;;;-0.30;99.90;;;;;;5029522;28;20394;-69
2022/12/15 13:59:05;;;;;;;55.20;34.30;;;-0.10;99.90;;;;;;5009674;28;20446;-69
2022/12/15 14:01:31;;;;;;;56.60;34.63;;;-0.20;99.90;;;;;;5009183;28;20393;-69
2022/12/15 14:04:02;;;;;;;52.90;34.30;;;-0.10;99.90;;;;;;5009159;28;20519;-68
2022/12/15 14:06:34;;;;;;;50.85;33.65;;;-0.20;99.90;;;;;;5013282;28;20409;-68
2022/12/15 14:09:00;;;;;;;54.53;33.40;;;-0.20;99.90;;;;;;5019464;28;20383;-68
2022/12/15 14:11:31;;;;;;;54.90;33.63;;;-0.30;99.90;;;;;;5033232;28;21008;-69
2022/12/15 14:14:01;;;;;;;48.50;32.03;;;-0.40;99.90;;;;;;5032788;28;20383;-68
2022/12/15 14:16:31;;;;;;;51.50;32.47;;;-0.40;99.90;;;;;;5032362;28;20388;-69
2022/12/15 14:19:09;;;;;;;45.92;29.65;;;-0.30;99.90;;;;;;5033831;28;20395;-69
2022/12/15 14:21:34;;;;;;;52.53;32.00;;;-0.40;99.90;;;;;;5036382;28;20547;-69
2022/12/15 14:24:00;;;;;;;52.60;32.27;;;-0.50;99.90;;;;;;5031321;28;20940;-69
2022/12/15 14:26:29;;;;;;;51.43;32.20;;;-0.40;99.90;;;;;;5033075;28;20548;-68
2022/12/15 14:29:00;;;;;;;49.38;32.35;;;-0.50;99.90;;;;;;5030079;28;20424;-68
2022/12/15 14:31:26;;;;;;;52.72;33.25;;;-0.50;99.90;;;;;;5028946;28;20395;-68
2022/12/15 14:34:05;;;;;;;55.80;33.47;;;-0.50;99.90;;;;;;5031671;28;20388;-68
2022/12/15 14:36:32;;;;;;;61.10;35.87;;;-0.50;99.90;;;;;;5024678;28;20422;-69
2022/12/15 14:39:18;;;;;;;56.05;34.70;;;-0.50;99.90;;;;;;5012803;28;20859;-69
2022/12/15 14:41:46;;;;;;;55.10;33.35;;;-0.50;99.90;;;;;;5012803;28;20377;-68
2022/12/15 14:44:33;;;;;;;58.22;34.03;;;-0.60;99.90;;;;;;5011888;28;20397;-68
2022/12/15 14:47:01;;;;;;;58.80;34.20;;;-0.60;99.90;;;;;;5011759;28;20459;-68
2022/12/15 14:49:41;;;;;;;63.83;37.17;;;-0.60;99.90;;;;;;5012665;28;20396;-68
2022/12/15 14:52:27;;;;;;;55.30;34.42;;;-0.60;99.90;;;;;;5013226;28;20405;-68
2022/12/15 14:54:55;;;;;;;60.80;35.78;;;-0.60;99.90;;;;;;5011316;28;20423;-69
2022/12/15 14:57:27;;;;;;;61.17;36.25;;;-0.60;99.90;;;;;;5011541;28;20473;-69
2022/12/15 14:59:53;;;;;;;58.25;35.45;;;-0.70;99.90;;;;;;5012515;28;20388;-68
2022/12/15 15:02:28;;;;;;;60.08;35.78;;;-0.60;99.90;;;;;;5012584;28;20871;-68
2022/12/15 15:04:59;;;;;;;59.97;35.73;;;-0.60;99.90;;;;;;5012196;28;20385;-68
2022/12/15 15:07:27;;;;;;;64.32;37.22;;;-0.60;99.90;;;;;;5012603;28;20535;-68
2022/12/15 15:09:53;;;;;;;60.95;36.35;;;-0.50;99.90;;;;;;5024250;28;20890;-68
2022/12/15 15:12:21;;;;;;;58.80;35.53;;;-0.50;99.90;;;;;;5032290;28;20410;-68
2022/12/15 15:14:48;;;;;;;62.15;36.45;;;-0.50;99.90;;;;;;5030176;28;20390;-68
2022/12/15 15:17:29;;;;;;;65.53;37.08;;;-0.50;99.90;;;;;;5031607;28;20387;-69